AirNav   ATP
 
 1425 users online  

7MI Flugplatz Airport
Lexington, Michigan, USA


FAA INFORMATION EFFECTIVE 01 FEBRUARY 2018

Location

FAA Identifier: 7MI
Lat/Long: 43-20-30.2750N / 082-32-53.8250W
43-20.504583N / 082-32.897083W
43.3417431 / -82.5482847
(estimated)
Elevation: 700 ft. / 213 m (estimated)
Variation: 07W (1995)
From city: 5 miles N of LEXINGTON, MI
Time zone: UTC -5 (UTC -4 during Daylight Saving Time)
Zip code: 48401

Airport Operations

Airport use: Open to the public
Activation date: 07/2000
Control tower: no
ARTCC: CLEVELAND CENTER
FSS: LANSING FLIGHT SERVICE STATION
NOTAMs facility: LAN (NOTAM-D service available)
Attendance: IRREG
Wind indicator: yes
Segmented circle: no

Airport Communications

CTAF: 122.9

Airport Services

Fuel available: 100LL
EMERGENCY ONLY

Runway Information

Runway 9/27

Dimensions: 3873 x 80 ft. / 1180 x 24 m
Surface: turf, in good condition
Runway edge markings: 3 FT YELLOW CONES.
RUNWAY 9  RUNWAY 27
Latitude: 43-20.467500N43-20.541667N
Longitude: 082-33.330833W082-32.463333W
Elevation: 669.0 ft.645.0 ft.
Traffic pattern: leftleft
Runway heading: 090 magnetic, 083 true270 magnetic, 263 true
Displaced threshold: 600 ft.1276 ft.
Obstructions: 18 ft. road, 48 ft. from runway, 2:1 slope to clear
APCH RATIO 36:1 AT DSPLCD THLD.
65 ft. trees, 132 ft. from runway, 2:1 slope to clear
APCH RATIO 20:1 AT DSPLCD THLD.

Airport Ownership and Management from official FAA records

Ownership: Privately-owned
Owner: WILLIAM SCHUTZLER
7126 TOWNSEND
APPLEGATE, MI 48401
Phone 810-359-7497
Manager: WILLIAM SCHUTZLER
7126 TOWNSEND
APPLEGATE, MI 48401
Phone 810-359-7497
OTHER CONTACT: GEORGE CRACKEL 6932 TOWNSEND, APPLEGATE MI 48401; 810-359-7176

Airport Operational Statistics

Aircraft based on the field: 3
Single engine airplanes: 2
Multi engine airplanes: 1
    
Aircraft operations: 200/year *
50% transient general aviation
50% local general aviation
* for 12-month period ending 31 December 2015

Additional Remarks

DEER ON AND INVOF ARPT.
FOR RY CONDITIONS CALL 810-359-7697.

Instrument Procedures

There are no published instrument procedures at 7MI.

Some nearby airports with instrument procedures:

77G - Marlette Airport (24 nm W)
KPHN - St Clair County International Airport (26 nm S)
KBAX - Huron County Memorial Airport (32 nm NW)
D95 - Dupont-Lapeer Airport (36 nm SW)
D98 - Romeo State Airport (38 nm SW)
 
Loc | Ops | Rwys | IFR | FBO | Links
Com | Nav | Svcs | Stats | Notes

AirNav Hotels Sweepstakes
 
Area around 7MI (Flugplatz Airport)
 
Road maps at: MapQuest Bing Google
 
Aerial photo
WARNING: Photo may not be current or correct
Aerial photo of 7MI (Flugplatz Airport)
Photo by Bill Schutzler
Photo taken 09-Jul-2008

Do you have a better or more recent aerial photo of Flugplatz Airport that you would like to share? If so, please send us your photo.

 
Sectional chart

 
Airport distance calculator
Flying to Flugplatz Airport? Find the distance to fly.

From to 7MI

Sunrise and sunset
Times for 19-Feb-2018
 Local
(UTC-5)
 Zulu
(UTC)
Morning civil twilight06:5411:54
Sunrise07:2312:23
Sunset18:0523:05
Evening civil twilight18:3423:34

Current date and time
Zulu (UTC)  19-Feb-2018 18:17:00
Local (UTC-5)  19-Feb-2018 13:17:00
 
METAR
CYZR 
23nm SE 
191802Z AUTO 20006KT 3/8SM R33/2200FT/N -RA FG VV003 03/03 A3000 RMK SLP166
KPHN 
26nm S 
191755Z AUTO 20005KT 1/2SM RA OVC003 03/02 A3001 RMK AO2
KBAX 
33nm NW 
191755Z AUTO 20006KT 10SM BKN010 OVC031 03/01 A2998 RMK AO2 T00260010 10026 20008
KD95 
36nm SW 
191755Z AUTO 20005KT 7SM OVC007 04/03 A2998 RMK AO2 T00420032 10043 20013
KCFS 
40nm W 
191755Z AUTO 20005KT 10SM BKN008 OVC012 05/03 A2997 RMK AO2 T00540033 10055 20014
KP58 
42nm N 
191751Z AUTO 22005KT 04/01 A2996 RMK AO1 SLP155 T00390011 10039 20011 53004
CWGD 
44nm NE 
191700Z AUTO 19010KT 04/03 RMK AO1 SOG 00 1004 SLP163 T00360026
KMTC 
45nm S 
191756Z AUTO 00000KT 3/4SM R19/3500V4500FT -RA BR VV002 03/03 A2998 RMK AO2 RAB12E24RAB39 SLP163 P0000 60000 T00270027 10029 20005 58001
TAF
CYZR 
23nm SE 
191745Z 1917/2002 18005KT 3/8SM FG VV003 TEMPO 1917/2002 2SM -RA BR OVC006 RMK FCST BASED ON AUTO OBS. NXT FCST BY 192000Z
NOTAMs
Click for the latest NOTAMs
NOTAMs are issued by the DoD/FAA and will open in a separate window not controlled by AirNav.

 

 
 

Would you like to see your business listed on this page?

 If your business provides an interesting product or service to pilots, flight crews, aircraft, or users of the Flugplatz Airport, you should consider listing it here.  To start the listing process, click on the button below
 
Add a business
 

Other Pages about Flugplatz Airport

Update a link
 
Copyright © AirNav, LLC. All rights reserved. Privacy Policy  Contact